Time;durP1;ratioP1;P1;durP2;ratioP2;P2;SDS_P1;SDS_P2;PMS_P1;PMS_P2;Temp;Humidity;BMP_temperature;BMP_pressure;BME280_temperature;BME280_humidity;BME280_pressure;Samples;Min_cycle;Max_cycle;Signal;HPM_P1;HPM_P2
2022/02/20 00:01:07;;;;;;;0.70;0.70;;;4.90;99.90;;;;;;4436586;32;20450;-65
2022/02/20 00:03:32;;;;;;;0.43;0.43;;;4.80;99.90;;;;;;4438569;32;20077;-64
2022/02/20 00:05:58;;;;;;;0.40;0.40;;;4.80;99.90;;;;;;4437240;32;20111;-64
2022/02/20 00:08:23;;;;;;;12.37;0.73;;;4.80;99.90;;;;;;4439321;32;20073;-64
2022/02/20 00:10:49;;;;;;;0.40;0.40;;;4.80;99.90;;;;;;4438046;32;20086;-64
2022/02/20 00:13:16;;;;;;;1.65;0.82;;;4.70;99.90;;;;;;4440750;32;20521;-64
2022/02/20 00:15:42;;;;;;;0.50;0.50;;;4.80;99.90;;;;;;4439306;32;20073;-64
2022/02/20 00:18:07;;;;;;;0.40;0.40;;;4.60;99.90;;;;;;4440734;32;20119;-64
2022/02/20 00:20:33;;;;;;;0.40;0.40;;;4.70;99.90;;;;;;4437013;32;20462;-64
2022/02/20 00:23:02;;;;;;;0.40;0.40;;;4.70;99.90;;;;;;4438454;32;20060;-64
2022/02/20 00:25:31;;;;;;;0.40;0.40;;;4.60;99.90;;;;;;4435284;32;20093;-64
2022/02/20 00:27:57;;;;;;;0.40;0.40;;;4.70;99.90;;;;;;4439422;32;20077;-64
2022/02/20 00:30:23;;;;;;;0.30;0.30;;;4.70;99.90;;;;;;4438708;32;20084;-64
2022/02/20 00:32:49;;;;;;;0.50;0.50;;;4.80;99.90;;;;;;4439256;32;20082;-64
2022/02/20 00:35:14;;;;;;;0.40;0.40;;;4.70;99.90;;;;;;4437056;32;20084;-64
2022/02/20 00:37:40;;;;;;;0.40;0.40;;;4.60;99.90;;;;;;4439451;32;20147;-64
2022/02/20 00:40:06;;;;;;;0.40;0.40;;;4.70;99.90;;;;;;4439677;32;20078;-64
2022/02/20 00:42:31;;;;;;;5.68;1.25;;;4.70;99.90;;;;;;4440214;32;20090;-64
2022/02/20 00:44:57;;;;;;;0.55;0.55;;;4.70;99.90;;;;;;4438312;32;20088;-64
2022/02/20 00:47:22;;;;;;;0.40;0.40;;;4.70;99.90;;;;;;4438580;32;20057;-63
2022/02/20 00:49:47;;;;;;;0.35;0.35;;;4.70;99.90;;;;;;4437966;32;20128;-63
2022/02/20 00:52:13;;;;;;;0.40;0.40;;;4.60;99.90;;;;;;4439546;32;20887;-64
2022/02/20 00:54:38;;;;;;;0.40;0.40;;;4.60;99.90;;;;;;4439079;32;20090;-64
2022/02/20 00:57:04;;;;;;;0.40;0.40;;;4.50;99.90;;;;;;4438280;32;20088;-64
2022/02/20 00:59:29;;;;;;;0.45;0.45;;;4.50;99.90;;;;;;4439722;32;20195;-64
2022/02/20 01:01:55;;;;;;;0.98;0.93;;;4.60;99.90;;;;;;4439383;32;20390;-64
2022/02/20 01:04:20;;;;;;;1.17;0.70;;;4.50;99.90;;;;;;4438977;32;20134;-64
2022/02/20 01:06:46;;;;;;;0.40;0.40;;;4.50;99.90;;;;;;4439889;32;20085;-64
2022/02/20 01:09:11;;;;;;;0.50;0.50;;;4.50;99.90;;;;;;4438754;32;20143;-64
2022/02/20 01:11:37;;;;;;;0.47;0.47;;;4.50;99.90;;;;;;4438142;32;20119;-64
2022/02/20 01:14:02;;;;;;;0.30;0.30;;;4.40;99.90;;;;;;4441339;32;20153;-64
2022/02/20 01:16:28;;;;;;;0.30;0.30;;;4.30;99.90;;;;;;4440911;32;20085;-64
2022/02/20 01:18:54;;;;;;;0.40;0.40;;;4.30;99.90;;;;;;4440200;32;20088;-64
2022/02/20 01:21:19;;;;;;;0.95;0.62;;;4.30;99.90;;;;;;4440312;32;20430;-64
2022/02/20 01:23:44;;;;;;;0.32;0.32;;;4.20;99.90;;;;;;4441545;32;20119;-64
2022/02/20 01:26:10;;;;;;;0.70;0.70;;;4.20;99.90;;;;;;4439608;32;20073;-64
2022/02/20 01:28:35;;;;;;;0.50;0.50;;;4.20;99.90;;;;;;4440350;32;20482;-64
2022/02/20 01:31:01;;;;;;;0.40;0.40;;;4.20;99.90;;;;;;4440758;32;20115;-64
2022/02/20 01:33:26;;;;;;;0.52;0.52;;;4.10;99.90;;;;;;4440302;32;20121;-64
2022/02/20 01:35:52;;;;;;;3.10;1.20;;;4.00;99.90;;;;;;4440592;32;20553;-64
2022/02/20 01:38:17;;;;;;;0.40;0.40;;;4.00;99.90;;;;;;4442072;32;20128;-64
2022/02/20 01:40:44;;;;;;;1.00;0.88;;;4.00;99.90;;;;;;4440570;32;20081;-64
2022/02/20 01:43:12;;;;;;;0.40;0.40;;;4.00;99.90;;;;;;4442376;32;20426;-64
2022/02/20 01:45:39;;;;;;;0.40;0.40;;;4.00;99.90;;;;;;4439898;32;20395;-64
2022/02/20 01:48:05;;;;;;;0.30;0.30;;;4.00;99.90;;;;;;4442767;32;20112;-64
2022/02/20 01:50:31;;;;;;;0.60;0.60;;;4.00;99.90;;;;;;4439542;32;20064;-64
2022/02/20 01:52:56;;;;;;;0.50;0.50;;;3.90;99.90;;;;;;4440290;32;20131;-64
2022/02/20 01:55:22;;;;;;;0.73;0.73;;;3.80;99.90;;;;;;4442373;32;20070;-64
2022/02/20 01:57:48;;;;;;;0.82;0.77;;;3.80;99.90;;;;;;4441559;32;20081;-64
2022/02/20 02:00:16;;;;;;;1.02;0.50;;;3.90;99.90;;;;;;4441473;32;20081;-64
2022/02/20 02:02:42;;;;;;;2.55;1.40;;;3.90;99.90;;;;;;4442199;32;20130;-64
2022/02/20 02:05:08;;;;;;;0.35;0.35;;;3.90;99.90;;;;;;4440562;32;20076;-64
2022/02/20 02:07:34;;;;;;;0.40;0.40;;;3.90;99.90;;;;;;4436924;32;20065;-64
2022/02/20 02:10:00;;;;;;;1.12;1.12;;;3.80;99.90;;;;;;4437901;32;20089;-64
2022/02/20 02:12:26;;;;;;;0.40;0.40;;;3.80;99.90;;;;;;4439118;32;20089;-64
2022/02/20 02:14:53;;;;;;;9.85;1.10;;;3.70;99.90;;;;;;4439798;32;20060;-64
2022/02/20 02:17:19;;;;;;;0.80;0.80;;;3.70;99.90;;;;;;4441608;32;20069;-64
2022/02/20 02:19:44;;;;;;;0.43;0.43;;;3.70;99.90;;;;;;4439241;32;20074;-64
2022/02/20 02:22:10;;;;;;;0.40;0.40;;;3.70;99.90;;;;;;4439663;32;20505;-64
2022/02/20 02:24:35;;;;;;;0.32;0.32;;;3.70;99.90;;;;;;4440476;32;20101;-64
2022/02/20 02:27:03;;;;;;;0.30;0.30;;;3.80;99.90;;;;;;4439074;32;20124;-64
2022/02/20 02:29:28;;;;;;;0.40;0.40;;;3.80;99.90;;;;;;4440260;32;20131;-64
2022/02/20 02:31:54;;;;;;;0.30;0.30;;;3.70;99.90;;;;;;4441121;32;20524;-64
2022/02/20 02:34:20;;;;;;;0.68;0.68;;;3.80;99.90;;;;;;4441278;32;20065;-64
2022/02/20 02:36:49;;;;;;;0.40;0.40;;;3.70;99.90;;;;;;4441474;32;20081;-64
2022/02/20 02:39:15;;;;;;;0.30;0.30;;;3.50;99.90;;;;;;4441281;32;20074;-64
2022/02/20 02:41:40;;;;;;;0.40;0.40;;;3.60;99.90;;;;;;4438794;32;20521;-64
2022/02/20 02:44:06;;;;;;;0.50;0.50;;;3.50;99.90;;;;;;4440838;32;20078;-64
2022/02/20 02:46:32;;;;;;;0.40;0.40;;;3.50;99.90;;;;;;4441698;32;20065;-64
2022/02/20 02:48:58;;;;;;;0.62;0.62;;;3.50;99.90;;;;;;4439923;32;20098;-64
2022/02/20 02:51:23;;;;;;;0.30;0.30;;;3.50;99.90;;;;;;4439209;32;20625;-64
2022/02/20 02:53:49;;;;;;;0.40;0.40;;;3.50;99.90;;;;;;4441299;32;20081;-65
2022/02/20 02:56:15;;;;;;;0.43;0.43;;;3.60;99.90;;;;;;4440923;32;20066;-64
2022/02/20 02:58:42;;;;;;;0.75;0.60;;;3.50;99.90;;;;;;4440105;32;20469;-64
2022/02/20 03:01:07;;;;;;;0.40;0.40;;;3.50;99.90;;;;;;4437270;32;20061;-64
2022/02/20 03:03:33;;;;;;;0.30;0.30;;;3.60;99.90;;;;;;4440174;32;20116;-64
2022/02/20 03:05:59;;;;;;;0.40;0.40;;;3.50;99.90;;;;;;4439198;32;20115;-63
2022/02/20 03:08:25;;;;;;;0.50;0.50;;;3.50;99.90;;;;;;4441121;32;20105;-63
2022/02/20 03:10:52;;;;;;;0.40;0.40;;;3.50;99.90;;;;;;4440639;32;20072;-64
2022/02/20 03:13:17;;;;;;;0.52;0.52;;;3.40;99.90;;;;;;4439727;32;20183;-65
2022/02/20 03:15:43;;;;;;;0.40;0.40;;;3.50;99.90;;;;;;4440035;32;20572;-65
2022/02/20 03:18:08;;;;;;;0.30;0.30;;;3.60;99.90;;;;;;4440578;32;20499;-65
2022/02/20 03:20:34;;;;;;;0.40;0.40;;;3.60;99.90;;;;;;4437681;32;20414;-65
2022/02/20 03:22:59;;;;;;;0.40;0.40;;;3.50;99.90;;;;;;4439278;32;20119;-64
2022/02/20 03:25:25;;;;;;;0.40;0.40;;;3.50;99.90;;;;;;4440461;32;20064;-65
2022/02/20 03:27:51;;;;;;;0.32;0.32;;;3.50;99.90;;;;;;4438814;32;20115;-64
2022/02/20 03:30:16;;;;;;;0.40;0.40;;;3.50;99.90;;;;;;4439680;32;20072;-63
2022/02/20 03:32:42;;;;;;;0.43;0.43;;;3.50;99.90;;;;;;4439835;32;20073;-62
2022/02/20 03:35:08;;;;;;;0.60;0.60;;;3.50;99.90;;;;;;4438326;32;20123;-63
2022/02/20 03:37:33;;;;;;;0.60;0.60;;;3.40;99.90;;;;;;4441194;32;20449;-63
2022/02/20 03:39:59;;;;;;;0.40;0.40;;;3.50;99.90;;;;;;4438558;32;20111;-63
2022/02/20 03:42:24;;;;;;;0.30;0.30;;;3.50;99.90;;;;;;4439639;32;20073;-63
2022/02/20 03:44:50;;;;;;;0.40;0.40;;;3.50;99.90;;;;;;4440143;32;20085;-64
2022/02/20 03:47:15;;;;;;;0.40;0.40;;;3.60;99.90;;;;;;4439362;32;20065;-63
2022/02/20 03:49:41;;;;;;;3.37;0.95;;;3.60;99.90;;;;;;4437960;32;20123;-65
2022/02/20 03:52:07;;;;;;;0.40;0.40;;;3.70;99.90;;;;;;4437653;32;20084;-64
2022/02/20 03:54:32;;;;;;;0.75;0.75;;;3.70;99.90;;;;;;4436470;32;20069;-64
2022/02/20 03:56:58;;;;;;;0.35;0.35;;;3.70;99.90;;;;;;4440877;32;20090;-64
2022/02/20 03:59:23;;;;;;;0.32;0.32;;;3.60;99.90;;;;;;4440348;32;20065;-64
2022/02/20 04:01:48;;;;;;;0.40;0.40;;;3.60;99.90;;;;;;4440429;32;20064;-64
2022/02/20 04:04:14;;;;;;;0.40;0.40;;;3.50;99.90;;;;;;4439810;32;20068;-64
2022/02/20 04:06:39;;;;;;;0.40;0.40;;;3.60;99.90;;;;;;4438813;32;20109;-64
2022/02/20 04:09:05;;;;;;;0.30;0.30;;;3.70;99.90;;;;;;4440380;32;20077;-64
2022/02/20 04:11:31;;;;;;;0.40;0.40;;;3.70;99.90;;;;;;4437574;32;20069;-64
2022/02/20 04:13:56;;;;;;;0.40;0.40;;;3.70;99.90;;;;;;4441321;32;20123;-64
2022/02/20 04:16:22;;;;;;;0.37;0.37;;;3.70;99.90;;;;;;4439559;32;20406;-64
2022/02/20 04:18:47;;;;;;;0.40;0.40;;;3.70;99.90;;;;;;4438676;32;20054;-64
2022/02/20 04:21:13;;;;;;;0.40;0.40;;;3.70;99.90;;;;;;4438614;32;20489;-64
2022/02/20 04:23:38;;;;;;;0.45;0.45;;;3.70;99.90;;;;;;4437168;32;20097;-65
2022/02/20 04:26:04;;;;;;;0.55;0.52;;;3.80;99.90;;;;;;4439652;32;20115;-63
2022/02/20 04:28:32;;;;;;;0.35;0.35;;;3.80;99.90;;;;;;4438607;32;20076;-64
2022/02/20 04:30:57;;;;;;;0.30;0.30;;;3.80;99.90;;;;;;4437975;32;20595;-64
2022/02/20 04:33:23;;;;;;;0.75;0.75;;;3.80;99.90;;;;;;4440991;32;20110;-63
2022/02/20 04:35:49;;;;;;;0.40;0.40;;;3.80;99.90;;;;;;4438118;32;20113;-63
2022/02/20 04:38:14;;;;;;;0.40;0.40;;;3.80;99.90;;;;;;4438221;32;20126;-63
2022/02/20 04:40:40;;;;;;;0.50;0.50;;;3.80;99.90;;;;;;4438854;32;20477;-63
2022/02/20 04:43:05;;;;;;;0.40;0.40;;;3.80;99.90;;;;;;4441599;32;20069;-65
2022/02/20 04:45:31;;;;;;;0.40;0.40;;;3.80;99.90;;;;;;4438825;32;20115;-65
2022/02/20 04:47:56;;;;;;;0.40;0.40;;;3.80;99.90;;;;;;4443386;32;20128;-65
2022/02/20 04:50:22;;;;;;;0.40;0.40;;;3.90;99.90;;;;;;4441879;32;20136;-64
2022/02/20 04:52:47;;;;;;;0.40;0.40;;;3.90;99.90;;;;;;4442991;32;20524;-64
2022/02/20 04:55:13;;;;;;;0.30;0.30;;;3.80;99.90;;;;;;4441794;32;20925;-64
2022/02/20 04:57:41;;;;;;;0.55;0.55;;;3.80;99.90;;;;;;4442741;32;20100;-64
2022/02/20 05:00:10;;;;;;;0.40;0.40;;;3.80;99.90;;;;;;4440813;32;20446;-64
2022/02/20 05:02:35;;;;;;;0.40;0.40;;;3.80;99.90;;;;;;4439760;32;20163;-64
2022/02/20 05:05:01;;;;;;;0.30;0.30;;;3.80;99.90;;;;;;4438840;32;20177;-64
2022/02/20 05:07:26;;;;;;;0.35;0.35;;;3.80;99.90;;;;;;4441141;32;20072;-64
2022/02/20 05:09:52;;;;;;;0.50;0.50;;;3.80;99.90;;;;;;4440575;32;20175;-64
2022/02/20 05:12:17;;;;;;;0.40;0.40;;;3.90;99.90;;;;;;4441694;32;20081;-64
2022/02/20 05:14:43;;;;;;;0.45;0.45;;;3.90;99.90;;;;;;4442224;32;20062;-64
2022/02/20 05:17:11;;;;;;;0.40;0.40;;;3.90;99.90;;;;;;4440633;32;20068;-64
2022/02/20 05:19:37;;;;;;;0.40;0.40;;;4.00;99.90;;;;;;4441180;32;20113;-64
2022/02/20 05:22:03;;;;;;;0.30;0.30;;;3.90;99.90;;;;;;4438358;32;20065;-64
2022/02/20 05:24:28;;;;;;;0.32;0.32;;;3.90;99.90;;;;;;4440772;32;20098;-64
2022/02/20 05:26:54;;;;;;;0.40;0.40;;;3.90;99.90;;;;;;4441314;32;20068;-64
2022/02/20 05:29:19;;;;;;;0.40;0.40;;;3.90;99.90;;;;;;4441726;32;20093;-64
2022/02/20 05:31:45;;;;;;;0.50;0.50;;;4.00;99.90;;;;;;4440964;32;20423;-64
2022/02/20 05:34:10;;;;;;;0.40;0.40;;;4.00;99.90;;;;;;4442552;32;20069;-64
2022/02/20 05:36:36;;;;;;;0.68;0.68;;;4.00;99.90;;;;;;4440894;32;20064;-64
2022/02/20 05:39:02;;;;;;;0.37;0.37;;;4.00;99.90;;;;;;4441813;32;20078;-65
2022/02/20 05:41:28;;;;;;;0.80;0.80;;;4.00;99.90;;;;;;4440770;32;20090;-64
2022/02/20 05:43:53;;;;;;;42.97;0.88;;;4.10;99.90;;;;;;4441918;32;20085;-64
2022/02/20 05:46:18;;;;;;;0.30;0.30;;;4.10;99.90;;;;;;4442401;32;20076;-64
2022/02/20 05:48:44;;;;;;;0.40;0.40;;;4.10;99.90;;;;;;4438437;32;20537;-65
2022/02/20 05:51:09;;;;;;;0.43;0.43;;;4.20;99.90;;;;;;4441274;32;20069;-64
2022/02/20 05:53:35;;;;;;;0.30;0.30;;;4.20;99.90;;;;;;4439876;32;20453;-65
2022/02/20 05:56:01;;;;;;;0.30;0.30;;;4.20;99.90;;;;;;4441674;32;20068;-64
2022/02/20 05:58:26;;;;;;;0.43;0.43;;;4.20;99.90;;;;;;4442147;32;20069;-64
2022/02/20 06:00:51;;;;;;;0.20;0.20;;;4.20;99.90;;;;;;4441194;32;20562;-64
2022/02/20 06:03:17;;;;;;;0.30;0.30;;;4.20;99.90;;;;;;4441704;32;20124;-65
2022/02/20 06:05:42;;;;;;;0.40;0.40;;;4.20;99.90;;;;;;4439766;32;20085;-65
2022/02/20 06:08:09;;;;;;;0.60;0.60;;;4.20;99.90;;;;;;4441808;32;20461;-64
2022/02/20 06:10:36;;;;;;;0.40;0.40;;;4.20;99.90;;;;;;4442091;32;20061;-65
2022/02/20 06:13:02;;;;;;;0.30;0.30;;;4.20;99.90;;;;;;4440698;32;20143;-64
2022/02/20 06:15:28;;;;;;;0.40;0.40;;;4.20;99.90;;;;;;4440863;32;20061;-64
2022/02/20 06:17:53;;;;;;;0.40;0.40;;;4.20;99.90;;;;;;4440742;32;20078;-64
2022/02/20 06:20:19;;;;;;;0.40;0.40;;;4.20;99.90;;;;;;4440097;32;20065;-64
2022/02/20 06:22:44;;;;;;;0.37;0.37;;;4.20;99.90;;;;;;4439688;32;20093;-64
2022/02/20 06:25:10;;;;;;;0.70;0.70;;;4.20;99.90;;;;;;4440326;32;20068;-65
2022/02/20 06:27:35;;;;;;;0.30;0.30;;;4.20;99.90;;;;;;4441711;32;20081;-65
2022/02/20 06:30:01;;;;;;;0.30;0.30;;;4.20;99.90;;;;;;4441891;32;20073;-65
2022/02/20 06:32:26;;;;;;;0.30;0.30;;;4.20;99.90;;;;;;4438694;32;20140;-65
2022/02/20 06:34:52;;;;;;;0.30;0.30;;;4.10;99.90;;;;;;4440339;32;20168;-65
2022/02/20 06:37:17;;;;;;;0.30;0.30;;;4.20;99.90;;;;;;4439766;32;20133;-65
2022/02/20 06:39:44;;;;;;;0.50;0.50;;;4.10;99.90;;;;;;4440249;32;20065;-64
2022/02/20 06:42:13;;;;;;;0.40;0.40;;;4.20;99.90;;;;;;4440576;32;20057;-65
2022/02/20 06:44:38;;;;;;;0.32;0.32;;;4.20;99.90;;;;;;4440797;32;20105;-65
2022/02/20 06:47:04;;;;;;;0.30;0.30;;;4.20;99.90;;;;;;4442097;32;20398;-64
2022/02/20 06:49:29;;;;;;;0.30;0.30;;;4.20;99.90;;;;;;4440983;32;20138;-65
2022/02/20 06:51:55;;;;;;;0.40;0.40;;;4.20;99.90;;;;;;4439356;32;20073;-63
2022/02/20 06:54:20;;;;;;;0.65;0.65;;;4.30;99.90;;;;;;4440205;32;20096;-63
2022/02/20 06:56:46;;;;;;;0.50;0.50;;;4.30;99.90;;;;;;4442374;32;20061;-63
2022/02/20 06:59:11;;;;;;;0.30;0.30;;;4.40;99.90;;;;;;4440868;32;20512;-64
2022/02/20 07:01:37;;;;;;;0.40;0.40;;;4.30;99.90;;;;;;4440352;32;20084;-64
2022/02/20 07:04:05;;;;;;;0.40;0.40;;;4.30;99.90;;;;;;4440028;32;20061;-64
2022/02/20 07:06:31;;;;;;;0.30;0.30;;;4.40;99.90;;;;;;4440678;32;20583;-64
2022/02/20 07:08:56;;;;;;;0.40;0.40;;;4.30;99.90;;;;;;4438190;32;20087;-64
2022/02/20 07:11:22;;;;;;;0.47;0.47;;;4.40;99.90;;;;;;4441480;32;20083;-64
2022/02/20 07:13:47;;;;;;;0.30;0.30;;;4.40;99.90;;;;;;4439977;32;20068;-64
2022/02/20 07:16:13;;;;;;;0.40;0.40;;;4.40;99.90;;;;;;4439611;32;20522;-64
2022/02/20 07:18:39;;;;;;;0.40;0.40;;;4.40;99.90;;;;;;4439487;32;20093;-64
2022/02/20 07:21:04;;;;;;;2.28;0.82;;;4.50;99.90;;;;;;4439360;32;20057;-64
2022/02/20 07:23:30;;;;;;;0.30;0.30;;;4.50;99.90;;;;;;4436701;32;20065;-64
2022/02/20 07:25:55;;;;;;;0.35;0.35;;;4.50;99.90;;;;;;4440712;32;20079;-65
2022/02/20 07:28:22;;;;;;;0.30;0.30;;;4.50;99.90;;;;;;4440041;32;20073;-64
2022/02/20 07:30:47;;;;;;;0.30;0.30;;;4.40;99.90;;;;;;4439082;32;20077;-64
2022/02/20 07:33:14;;;;;;;0.40;0.40;;;4.50;99.90;;;;;;4438711;32;20081;-64
2022/02/20 07:35:40;;;;;;;0.52;0.52;;;4.50;99.90;;;;;;4436704;32;83560;-65
2022/02/20 07:38:05;;;;;;;0.50;0.50;;;4.50;99.90;;;;;;4439614;32;20089;-64
2022/02/20 07:40:31;;;;;;;0.57;0.57;;;4.60;99.90;;;;;;4438036;32;20465;-64
2022/02/20 07:42:57;;;;;;;0.43;0.43;;;4.70;99.90;;;;;;4439263;32;20084;-64
2022/02/20 07:45:23;;;;;;;4.05;2.15;;;4.70;99.90;;;;;;4439637;32;20123;-64
2022/02/20 07:47:56;;;;;;;0.30;0.30;;;4.70;99.90;;;;;;4440159;32;20551;-64
2022/02/20 07:50:23;;;;;;;0.32;0.32;;;4.70;99.90;;;;;;4437947;32;20077;-64
2022/02/20 07:52:49;;;;;;;0.68;0.68;;;4.70;99.90;;;;;;4439365;32;20081;-64
2022/02/20 07:55:16;;;;;;;0.37;0.37;;;4.70;99.90;;;;;;4439715;32;20057;-64
2022/02/20 07:57:42;;;;;;;0.40;0.40;;;4.60;99.90;;;;;;4440327;32;20089;-64
2022/02/20 08:00:08;;;;;;;0.35;0.35;;;4.60;99.90;;;;;;4439443;32;20082;-64
2022/02/20 08:02:34;;;;;;;0.70;0.70;;;4.70;99.90;;;;;;4438145;32;20077;-64
2022/02/20 08:04:59;;;;;;;0.45;0.45;;;4.70;99.90;;;;;;4439194;32;20077;-64
2022/02/20 08:07:24;;;;;;;0.40;0.40;;;4.80;99.90;;;;;;4438607;32;20070;-64
2022/02/20 08:09:51;;;;;;;0.30;0.30;;;4.90;99.90;;;;;;4440332;32;20653;-64
2022/02/20 08:12:17;;;;;;;0.40;0.40;;;4.80;99.90;;;;;;4440147;32;20076;-64
2022/02/20 08:14:43;;;;;;;0.30;0.30;;;4.90;99.90;;;;;;4439378;32;20088;-64
2022/02/20 08:17:09;;;;;;;0.70;0.60;;;4.80;99.90;;;;;;4438689;32;20142;-64
2022/02/20 08:19:34;;;;;;;0.50;0.50;;;4.90;99.90;;;;;;4438111;32;20090;-64
2022/02/20 08:22:00;;;;;;;0.30;0.30;;;4.90;99.90;;;;;;4439979;32;20548;-64
2022/02/20 08:24:27;;;;;;;0.40;0.40;;;4.90;99.90;;;;;;4444215;32;20081;-65
2022/02/20 08:26:52;;;;;;;0.30;0.30;;;4.90;99.90;;;;;;4443153;32;20326;-64
2022/02/20 08:29:21;;;;;;;1.10;0.68;;;5.00;99.90;;;;;;4440981;32;21190;-64
2022/02/20 08:31:48;;;;;;;0.30;0.30;;;4.90;99.90;;;;;;4443383;32;20471;-64
2022/02/20 08:34:14;;;;;;;0.40;0.40;;;5.00;99.90;;;;;;4442504;32;20074;-64
2022/02/20 08:36:40;;;;;;;0.65;0.65;;;5.10;99.90;;;;;;4442503;32;20088;-64
2022/02/20 08:39:06;;;;;;;0.40;0.40;;;5.20;99.90;;;;;;4441756;32;20086;-64
2022/02/20 08:41:32;;;;;;;0.32;0.32;;;5.10;99.90;;;;;;4441330;32;20472;-64
2022/02/20 08:43:58;;;;;;;0.40;0.40;;;5.20;99.90;;;;;;4427017;32;20065;-64
2022/02/20 08:46:23;;;;;;;0.40;0.40;;;5.40;99.90;;;;;;4443156;32;20069;-64
2022/02/20 08:48:49;;;;;;;0.30;0.30;;;5.40;99.90;;;;;;4440763;32;20084;-64
2022/02/20 08:51:16;;;;;;;0.30;0.30;;;5.50;99.90;;;;;;4441613;32;20093;-64
2022/02/20 08:53:42;;;;;;;0.35;0.35;;;5.50;99.90;;;;;;4442839;32;20486;-64
2022/02/20 08:56:08;;;;;;;0.30;0.30;;;5.60;99.90;;;;;;4444005;32;20069;-64
2022/02/20 08:58:34;;;;;;;0.30;0.30;;;5.60;99.90;;;;;;4443623;32;20061;-65
2022/02/20 09:01:02;;;;;;;0.50;0.50;;;5.60;99.90;;;;;;4440553;32;20096;-64
2022/02/20 09:03:28;;;;;;;0.50;0.50;;;5.70;99.90;;;;;;4440391;32;20089;-64
2022/02/20 09:05:53;;;;;;;0.30;0.30;;;5.70;99.90;;;;;;4440414;32;20085;-64
2022/02/20 09:08:19;;;;;;;0.50;0.50;;;5.60;99.90;;;;;;4442704;32;20077;-64
2022/02/20 09:10:45;;;;;;;0.32;0.32;;;5.60;99.90;;;;;;4440999;32;20089;-64
2022/02/20 09:13:11;;;;;;;0.47;0.47;;;5.60;99.90;;;;;;4441544;32;20062;-64
2022/02/20 09:15:37;;;;;;;0.40;0.40;;;5.60;99.90;;;;;;4441534;32;20084;-64
2022/02/20 09:18:03;;;;;;;0.30;0.30;;;5.50;99.90;;;;;;4442679;32;20066;-64
2022/02/20 09:20:29;;;;;;;0.80;0.60;;;5.40;99.90;;;;;;4439125;32;20136;-64
2022/02/20 09:22:54;;;;;;;0.47;0.47;;;5.50;99.90;;;;;;4441512;32;20085;-64
2022/02/20 09:25:20;;;;;;;0.35;0.35;;;5.50;99.90;;;;;;4442572;32;20081;-64
2022/02/20 09:27:46;;;;;;;0.40;0.40;;;5.40;99.90;;;;;;4443193;32;20767;-64
2022/02/20 09:30:12;;;;;;;0.40;0.40;;;5.40;99.90;;;;;;4441698;32;20096;-64
2022/02/20 09:32:38;;;;;;;0.30;0.30;;;5.40;99.90;;;;;;4440815;32;20509;-64
2022/02/20 09:35:04;;;;;;;0.30;0.30;;;5.50;99.90;;;;;;4439022;32;20301;-64
2022/02/20 09:37:30;;;;;;;0.30;0.30;;;5.50;99.90;;;;;;4440564;32;20089;-64
2022/02/20 09:39:56;;;;;;;0.35;0.35;;;5.60;99.90;;;;;;4441790;32;20077;-64
2022/02/20 09:42:22;;;;;;;0.40;0.40;;;5.60;99.90;;;;;;4440882;32;20065;-64
2022/02/20 09:44:48;;;;;;;0.45;0.45;;;5.60;99.90;;;;;;4441405;32;20085;-65
2022/02/20 09:47:13;;;;;;;0.40;0.40;;;5.60;99.90;;;;;;4442400;32;20118;-64
2022/02/20 09:49:39;;;;;;;0.68;0.60;;;5.60;99.90;;;;;;4439949;32;20064;-64
2022/02/20 09:52:05;;;;;;;0.50;0.50;;;5.60;99.90;;;;;;4441194;32;20072;-64
2022/02/20 09:54:31;;;;;;;0.40;0.40;;;5.60;99.90;;;;;;4441282;32;20082;-64
2022/02/20 09:56:57;;;;;;;0.40;0.40;;;5.80;99.90;;;;;;4440234;32;20364;-64
2022/02/20 09:59:22;;;;;;;0.50;0.50;;;5.80;99.90;;;;;;4441333;32;20512;-64
2022/02/20 10:02:09;;;;;;;0.50;0.50;;;5.80;99.90;;;;;;4441337;32;20093;-64
2022/02/20 10:04:39;;;;;;;0.47;0.47;;;5.80;99.90;;;;;;4438284;32;20122;-64
2022/02/20 10:07:04;;;;;;;0.40;0.40;;;5.70;99.90;;;;;;4439024;32;20068;-64
2022/02/20 10:09:35;;;;;;;0.55;0.55;;;5.70;99.90;;;;;;4440138;32;20080;-64
2022/02/20 10:12:01;;;;;;;0.73;0.73;;;5.70;99.90;;;;;;4441596;32;20143;-64
2022/02/20 10:14:31;;;;;;;0.52;0.52;;;5.70;99.90;;;;;;4441103;32;20085;-64
2022/02/20 10:17:12;;;;;;;0.40;0.40;;;5.80;99.90;;;;;;4438863;32;20391;-64
2022/02/20 10:19:57;;;;;;;0.50;0.50;;;5.90;99.90;;;;;;4439749;32;20073;-64
2022/02/20 10:22:33;;;;;;;1.98;0.60;;;5.90;99.90;;;;;;4436857;32;20089;-64
2022/02/20 10:25:01;;;;;;;0.55;0.55;;;5.90;99.90;;;;;;4440600;32;20139;-64
2022/02/20 10:27:26;;;;;;;0.40;0.40;;;6.00;99.90;;;;;;4442145;32;20179;-64
2022/02/20 10:30:12;;;;;;;1.17;0.60;;;6.10;99.90;;;;;;4440852;32;20767;-64
2022/02/20 10:32:38;;;;;;;0.60;0.60;;;6.10;99.90;;;;;;4440898;32;20084;-64
2022/02/20 10:35:09;;;;;;;0.30;0.30;;;6.20;99.90;;;;;;4439265;32;20077;-64
2022/02/20 10:37:35;;;;;;;0.40;0.40;;;6.20;99.90;;;;;;4441055;32;20081;-64
2022/02/20 10:40:01;;;;;;;1.45;0.68;;;6.30;99.90;;;;;;4439383;32;20418;-64
2022/02/20 10:42:27;;;;;;;0.32;0.32;;;6.30;99.90;;;;;;4441199;32;20141;-64
2022/02/20 10:44:58;;;;;;;0.47;0.47;;;6.40;99.90;;;;;;4440783;32;20074;-64
2022/02/20 10:47:25;;;;;;;0.52;0.52;;;6.40;99.90;;;;;;4441902;32;20157;-64
2022/02/20 10:49:51;;;;;;;0.50;0.50;;;6.50;99.90;;;;;;4440100;32;20567;-64
2022/02/20 10:52:32;;;;;;;0.43;0.43;;;6.50;99.90;;;;;;4439185;32;20406;-64
2022/02/20 10:55:14;;;;;;;0.32;0.32;;;6.50;99.90;;;;;;4439352;32;20568;-64
2022/02/20 10:57:42;;;;;;;0.30;0.30;;;6.70;99.90;;;;;;4439296;32;20084;-64
2022/02/20 11:00:11;;;;;;;0.37;0.37;;;6.70;99.90;;;;;;4440460;32;20077;-64
2022/02/20 11:02:36;;;;;;;0.30;0.30;;;6.70;99.90;;;;;;4439801;32;20148;-64
2022/02/20 11:05:03;;;;;;;0.40;0.40;;;6.60;99.90;;;;;;4442116;32;20069;-65
2022/02/20 11:07:28;;;;;;;1.65;1.15;;;6.60;99.90;;;;;;4439925;32;20101;-65
2022/02/20 11:09:54;;;;;;;0.30;0.30;;;6.60;99.90;;;;;;4441241;32;20081;-64
2022/02/20 11:12:21;;;;;;;0.40;0.40;;;6.60;99.90;;;;;;4438791;32;20064;-64
2022/02/20 11:14:49;;;;;;;0.40;0.40;;;6.60;99.90;;;;;;4440138;32;20508;-64
2022/02/20 11:17:16;;;;;;;0.45;0.45;;;6.70;99.90;;;;;;4438808;32;20135;-64
2022/02/20 11:19:42;;;;;;;0.30;0.30;;;6.60;99.90;;;;;;4433281;32;20128;-64
2022/02/20 11:22:09;;;;;;;0.20;0.20;;;6.60;99.90;;;;;;4437685;32;20446;-64
2022/02/20 11:24:36;;;;;;;0.35;0.35;;;6.60;99.90;;;;;;4439172;32;20604;-64
2022/02/20 11:27:05;;;;;;;0.40;0.40;;;6.50;99.90;;;;;;4440117;32;20060;-64
2022/02/20 11:29:31;;;;;;;0.50;0.50;;;6.50;99.90;;;;;;4441142;32;20429;-64
2022/02/20 11:31:57;;;;;;;0.40;0.40;;;6.50;99.90;;;;;;4440396;32;20073;-65
2022/02/20 11:34:24;;;;;;;0.40;0.40;;;6.50;99.90;;;;;;4439805;32;20469;-64
2022/02/20 11:36:53;;;;;;;0.30;0.30;;;6.50;99.90;;;;;;4439615;32;20088;-64
2022/02/20 11:39:20;;;;;;;0.50;0.50;;;6.40;99.90;;;;;;4438923;32;20065;-65
2022/02/20 11:42:10;;;;;;;0.37;0.37;;;6.30;99.90;;;;;;4437623;32;20178;-64
2022/02/20 11:44:54;;;;;;;0.30;0.30;;;6.20;99.90;;;;;;4438448;32;20100;-64
2022/02/20 11:47:38;;;;;;;0.32;0.32;;;6.00;99.90;;;;;;4439156;32;20534;-64
2022/02/20 11:50:21;;;;;;;0.37;0.37;;;6.10;99.90;;;;;;4438739;32;20509;-64
2022/02/20 11:52:52;;;;;;;0.40;0.40;;;5.90;99.90;;;;;;4439972;32;20109;-64
2022/02/20 11:55:24;;;;;;;0.30;0.30;;;5.80;99.90;;;;;;4438499;32;20160;-64
2022/02/20 11:57:50;;;;;;;0.30;0.30;;;5.80;99.90;;;;;;4439489;32;20499;-64
2022/02/20 12:00:20;;;;;;;0.30;0.30;;;5.80;99.90;;;;;;4440297;32;20469;-64
2022/02/20 12:03:07;;;;;;;0.40;0.40;;;5.70;99.90;;;;;;4440408;32;20077;-64
2022/02/20 12:05:35;;;;;;;0.30;0.30;;;5.70;99.90;;;;;;4435540;32;20105;-64
2022/02/20 12:08:05;;;;;;;0.62;0.62;;;5.60;99.90;;;;;;4438984;32;20061;-64
2022/02/20 12:10:33;;;;;;;0.37;0.37;;;5.50;99.90;;;;;;4439129;32;20084;-65
2022/02/20 12:13:08;;;;;;;0.32;0.32;;;5.50;99.90;;;;;;4439785;32;20053;-64
2022/02/20 12:15:42;;;;;;;1.25;0.52;;;5.50;99.90;;;;;;4440704;32;20347;-64
2022/02/20 12:18:15;;;;;;;0.50;0.50;;;5.50;99.90;;;;;;4438582;32;20522;-64
2022/02/20 12:20:58;;;;;;;0.70;0.70;;;5.40;99.90;;;;;;4437071;32;20117;-64
2022/02/20 12:23:34;;;;;;;0.60;0.60;;;5.50;99.90;;;;;;4439002;32;20467;-64
2022/02/20 12:26:03;;;;;;;0.40;0.40;;;5.40;99.90;;;;;;4439168;32;20069;-64
2022/02/20 12:28:39;;;;;;;1.45;0.70;;;5.40;99.90;;;;;;4439418;32;20068;-64
2022/02/20 12:31:26;;;;;;;0.50;0.50;;;5.30;99.90;;;;;;4439721;32;20131;-64
2022/02/20 12:33:52;;;;;;;0.40;0.40;;;5.20;99.90;;;;;;4438113;32;20126;-64
2022/02/20 12:36:33;;;;;;;0.75;0.52;;;5.20;99.90;;;;;;4438739;32;20073;-64
2022/02/20 12:39:01;;;;;;;0.40;0.40;;;5.30;99.90;;;;;;4440332;32;20421;-64
2022/02/20 12:41:28;;;;;;;1.55;0.88;;;5.30;99.90;;;;;;4439936;32;20089;-64
2022/02/20 12:43:55;;;;;;;0.50;0.50;;;5.50;99.90;;;;;;4438881;32;20516;-64
2022/02/20 12:46:21;;;;;;;1.15;0.82;;;5.50;99.90;;;;;;4439271;32;20108;-64
2022/02/20 12:48:47;;;;;;;0.30;0.30;;;5.50;99.90;;;;;;4439210;32;20089;-64
2022/02/20 12:51:14;;;;;;;0.40;0.40;;;5.60;99.90;;;;;;4439434;32;20769;-64
2022/02/20 12:53:44;;;;;;;0.30;0.30;;;5.70;99.90;;;;;;4439917;32;20082;-64
2022/02/20 12:56:09;;;;;;;0.50;0.50;;;5.60;99.90;;;;;;4438101;32;20101;-64